createdAt,value
2018-11-07T00:01:29.399Z,44.00
2018-11-07T00:03:59.280Z,44.00
2018-11-07T00:06:29.174Z,44.10
2018-11-07T00:09:00.129Z,44.10
2018-11-07T00:11:30.023Z,44.10
2018-11-07T00:13:59.958Z,44.20
2018-11-07T00:16:30.131Z,44.20
2018-11-07T00:19:00.014Z,44.30
2018-11-07T00:21:29.872Z,44.10
2018-11-07T00:23:59.769Z,44.10
2018-11-07T00:26:29.754Z,44.20
2018-11-07T00:29:19.376Z,44.00
2018-11-07T00:31:49.476Z,43.80
2018-11-07T00:34:19.498Z,43.80
2018-11-07T00:36:49.540Z,43.60
2018-11-07T00:39:19.441Z,43.70
2018-11-07T00:41:49.820Z,43.80
2018-11-07T00:44:19.703Z,43.80
2018-11-07T00:46:49.613Z,44.00
2018-11-07T00:49:19.546Z,43.80
2018-11-07T00:51:49.446Z,44.00
2018-11-07T00:54:19.355Z,44.10
2018-11-07T00:56:50.062Z,44.30
2018-11-07T00:59:19.943Z,44.20
2018-11-07T01:01:49.837Z,44.40
2018-11-07T01:04:20.532Z,44.40
2018-11-07T01:06:50.408Z,44.60
2018-11-07T01:09:20.317Z,44.60
2018-11-07T01:11:50.524Z,44.60
2018-11-07T01:14:20.402Z,44.80
2018-11-07T01:16:50.362Z,45.00
2018-11-07T01:19:20.867Z,45.00
2018-11-07T01:21:50.774Z,45.20
2018-11-07T01:24:20.671Z,45.40
2018-11-07T01:26:52.479Z,45.30
2018-11-07T01:29:22.355Z,45.40
2018-11-07T01:31:52.246Z,45.10
2018-11-07T01:34:22.456Z,45.00
2018-11-07T01:36:52.398Z,45.10
2018-11-07T01:39:22.269Z,45.30
2018-11-07T01:41:53.188Z,45.30
2018-11-07T01:44:22.996Z,45.50
2018-11-07T01:46:52.873Z,45.50
2018-11-07T01:49:23.109Z,45.30
2018-11-07T01:51:53.053Z,45.40
2018-11-07T01:54:22.947Z,46.00
2018-11-07T01:56:52.907Z,45.40
2018-11-07T01:59:22.802Z,45.50
2018-11-07T02:01:52.674Z,45.60
2018-11-07T02:04:22.603Z,45.50
2018-11-07T02:06:52.477Z,45.60
2018-11-07T02:09:22.375Z,45.70
2018-11-07T02:11:52.564Z,45.60
2018-11-07T02:14:22.441Z,45.70
2018-11-07T02:16:52.317Z,46.10
2018-11-07T02:19:24.087Z,45.70
2018-11-07T02:21:53.988Z,45.60
2018-11-07T02:24:23.956Z,45.40
2018-11-07T02:26:54.791Z,45.20
2018-11-07T02:29:24.739Z,44.80
2018-11-07T02:31:54.788Z,44.70
2018-11-07T02:34:25.520Z,44.30
2018-11-07T02:36:55.451Z,44.20
2018-11-07T02:39:25.331Z,43.80
2018-11-07T02:41:56.094Z,43.70
2018-11-07T02:44:25.948Z,43.60
2018-11-07T02:46:55.817Z,43.40
2018-11-07T02:49:27.376Z,43.40
2018-11-07T02:51:57.397Z,43.30
2018-11-07T02:54:27.427Z,43.10
2018-11-07T02:56:58.336Z,43.00
2018-11-07T02:59:28.208Z,42.80
2018-11-07T03:01:58.075Z,42.80
2018-11-07T03:04:29.240Z,42.70
2018-11-07T03:06:59.131Z,42.50
2018-11-07T03:09:29.019Z,42.40
2018-11-07T03:11:58.943Z,42.40
2018-11-07T03:14:28.849Z,42.20
2018-11-07T03:16:58.771Z,41.70
2018-11-07T03:19:29.003Z,41.70
2018-11-07T03:21:58.913Z,41.70
2018-11-07T03:24:29.058Z,41.70
2018-11-07T03:26:59.916Z,41.80
2018-11-07T03:29:29.834Z,41.70
2018-11-07T03:31:59.757Z,41.50
2018-11-07T03:34:30.058Z,41.00
2018-11-07T03:36:59.949Z,40.50
2018-11-07T03:39:30.767Z,40.40
2018-11-07T03:42:04.330Z,40.80
2018-11-07T03:44:34.192Z,40.60
2018-11-07T03:47:04.090Z,40.70
2018-11-07T03:49:34.319Z,41.10
2018-11-07T03:52:04.246Z,40.70
2018-11-07T03:54:36.599Z,40.80
2018-11-07T03:57:08.209Z,40.50
2018-11-07T03:59:38.042Z,40.50
2018-11-07T04:02:07.929Z,40.40
2018-11-07T04:04:39.340Z,40.10
2018-11-07T04:07:09.279Z,40.20
2018-11-07T04:09:39.163Z,39.80
2018-11-07T04:12:09.080Z,39.80
2018-11-07T04:14:38.954Z,39.80
2018-11-07T04:17:08.862Z,39.80
2018-11-07T04:19:39.955Z,39.70
2018-11-07T04:22:09.834Z,39.60
2018-11-07T04:24:39.734Z,39.40
2018-11-07T04:27:09.890Z,39.70
2018-11-07T04:29:39.731Z,40.20
2018-11-07T04:32:09.729Z,40.30
2018-11-07T04:34:41.401Z,40.10
2018-11-07T04:37:11.310Z,40.10
2018-11-07T04:39:41.180Z,40.20
2018-11-07T04:42:11.525Z,40.10
2018-11-07T04:44:41.627Z,39.80
2018-11-07T04:47:11.673Z,40.70
2018-11-07T04:49:41.886Z,40.00
2018-11-07T04:52:11.776Z,40.00
2018-11-07T04:54:41.654Z,39.80
2018-11-07T04:57:11.890Z,39.30
2018-11-07T04:59:41.921Z,39.50
2018-11-07T05:02:11.847Z,39.60
2018-11-07T05:04:42.040Z,39.80
2018-11-07T05:07:12.024Z,39.50
2018-11-07T05:09:42.066Z,39.70
2018-11-07T05:12:12.043Z,39.60
2018-11-07T05:14:42.121Z,39.70
2018-11-07T05:17:14.934Z,39.60
2018-11-07T05:19:45.876Z,39.30
2018-11-07T05:22:15.747Z,39.40
2018-11-07T05:24:45.642Z,39.40
2018-11-07T05:27:15.851Z,39.80
2018-11-07T05:29:46.029Z,39.40
2018-11-07T05:32:15.936Z,39.40
2018-11-07T05:34:46.808Z,39.80
2018-11-07T05:37:16.692Z,39.70
2018-11-07T05:39:46.677Z,39.40
2018-11-07T05:42:16.844Z,39.30
2018-11-07T05:44:46.876Z,39.40
2018-11-07T05:47:16.786Z,39.40
2018-11-07T05:49:50.291Z,39.50
2018-11-07T05:52:20.218Z,39.40
2018-11-07T05:54:50.146Z,39.20
2018-11-07T05:57:21.063Z,38.90
2018-11-07T05:59:50.993Z,38.90
2018-11-07T06:02:20.934Z,38.40
2018-11-07T06:04:50.947Z,38.10
2018-11-07T06:07:21.044Z,38.00
2018-11-07T06:09:51.065Z,38.10
2018-11-07T06:12:21.052Z,37.90
2018-11-07T06:14:50.962Z,37.70
2018-11-07T06:17:20.848Z,37.50
2018-11-07T06:19:50.803Z,37.80
2018-11-07T06:22:20.753Z,37.20
2018-11-07T06:24:50.808Z,37.30
2018-11-07T06:27:21.082Z,37.30
2018-11-07T06:29:50.975Z,36.80
2018-11-07T06:32:20.901Z,36.60
2018-11-07T06:34:51.105Z,36.90
2018-11-07T06:37:21.452Z,35.90
2018-11-07T06:39:51.355Z,36.10
2018-11-07T06:42:21.303Z,35.70
2018-11-07T06:44:51.192Z,35.70
2018-11-07T06:47:21.107Z,36.10
2018-11-07T06:49:52.541Z,36.00
2018-11-07T06:52:22.556Z,36.10
2018-11-07T06:54:52.442Z,36.20
2018-11-07T06:57:24.016Z,36.40
2018-11-07T06:59:54.130Z,36.70
2018-11-07T07:02:24.036Z,36.40
2018-11-07T07:04:54.928Z,36.70
2018-11-07T07:07:24.848Z,36.60
2018-11-07T07:09:54.765Z,35.50
2018-11-07T07:12:24.926Z,36.10
2018-11-07T07:14:54.848Z,36.30
2018-11-07T07:17:24.811Z,36.90
2018-11-07T07:19:54.866Z,37.00
2018-11-07T07:22:24.836Z,37.10
2018-11-07T07:24:54.794Z,35.90
2018-11-07T07:27:25.164Z,36.10
2018-11-07T07:29:55.143Z,34.30
2018-11-07T07:32:24.990Z,34.20
2018-11-07T07:34:54.915Z,34.20
2018-11-07T07:37:24.827Z,34.20
2018-11-07T07:39:54.727Z,33.80
2018-11-07T07:42:27.962Z,33.90
2018-11-07T07:44:57.907Z,34.10
2018-11-07T07:47:27.813Z,34.40
2018-11-07T07:49:57.772Z,34.70
2018-11-07T07:52:27.662Z,35.20
2018-11-07T07:54:57.554Z,35.50
2018-11-07T07:57:28.679Z,34.80
2018-11-07T07:59:58.708Z,33.90
2018-11-07T08:02:28.651Z,33.80
2018-11-07T08:04:58.873Z,34.40
2018-11-07T08:07:28.789Z,34.60
2018-11-07T08:09:58.697Z,34.80
2018-11-07T08:12:29.290Z,34.70
2018-11-07T08:14:59.176Z,33.70
2018-11-07T08:17:29.057Z,32.60
2018-11-07T08:19:59.019Z,32.10
2018-11-07T08:22:28.922Z,31.80
2018-11-07T08:24:58.840Z,31.50
2018-11-07T08:27:28.965Z,31.00
2018-11-07T08:29:58.921Z,30.50
2018-11-07T08:32:28.951Z,30.10
2018-11-07T08:34:58.870Z,30.10
2018-11-07T08:37:28.793Z,29.90
2018-11-07T08:39:58.666Z,29.80
2018-11-07T08:42:29.933Z,29.90
2018-11-07T08:44:59.787Z,29.80
2018-11-07T08:47:29.692Z,29.70
2018-11-07T08:49:59.737Z,29.80
2018-11-07T08:52:29.624Z,30.40
2018-11-07T08:54:59.611Z,29.50
2018-11-07T08:57:31.729Z,29.20
2018-11-07T09:00:01.709Z,29.10
2018-11-07T09:02:31.642Z,28.70
2018-11-07T09:05:01.596Z,28.70
2018-11-07T09:07:31.479Z,28.30
2018-11-07T09:10:01.416Z,28.00
2018-11-07T09:12:32.985Z,27.50
2018-11-07T09:15:03.103Z,27.20
2018-11-07T09:17:33.025Z,26.60
2018-11-07T09:20:04.253Z,25.80
2018-11-07T09:22:34.057Z,25.20
2018-11-07T09:25:04.140Z,24.70
2018-11-07T09:27:34.327Z,24.00
2018-11-07T09:30:04.227Z,23.50
2018-11-07T09:32:34.152Z,23.40
2018-11-07T09:35:04.538Z,22.70
2018-11-07T09:37:34.488Z,22.00
2018-11-07T09:40:04.358Z,22.20
2018-11-07T09:42:35.019Z,21.70
2018-11-07T09:45:05.052Z,20.90
2018-11-07T09:47:35.043Z,19.70
2018-11-07T09:50:05.153Z,18.90
2018-11-07T09:52:35.060Z,18.30
2018-11-07T09:55:05.279Z,16.90
2018-11-07T09:57:37.045Z,15.70
2018-11-07T10:00:11.327Z,14.80
2018-11-07T10:02:41.946Z,14.70
2018-11-07T10:05:12.426Z,14.10
2018-11-07T10:07:42.617Z,13.40
2018-11-07T10:10:23.002Z,13.40
2018-11-07T10:12:53.029Z,13.30
2018-11-07T10:15:23.154Z,13.10
2018-11-07T10:17:53.031Z,13.80
2018-11-07T10:20:24.059Z,14.50
2018-11-07T10:22:54.958Z,14.80
2018-11-07T10:25:24.858Z,15.60
2018-11-07T10:27:55.305Z,15.80
2018-11-07T10:30:25.678Z,15.60
2018-11-07T10:32:55.335Z,15.60
2018-11-07T10:35:25.231Z,16.20
2018-11-07T10:37:55.205Z,16.50
2018-11-07T10:40:25.761Z,17.50
2018-11-07T10:42:55.649Z,18.00
2018-11-07T10:45:29.611Z,18.80
2018-11-07T10:47:59.498Z,19.30
2018-11-07T10:50:29.428Z,19.70
2018-11-07T10:53:01.153Z,19.60
2018-11-07T10:55:31.060Z,19.00
2018-11-07T10:58:00.924Z,17.90
2018-11-07T11:00:48.290Z,17.00
2018-11-07T11:03:31.458Z,16.80
2018-11-07T11:06:01.416Z,16.00
2018-11-07T11:08:31.334Z,15.80
2018-11-07T11:11:01.430Z,15.70
2018-11-07T11:13:32.134Z,15.70
2018-11-07T11:16:02.064Z,15.30
2018-11-07T11:18:31.979Z,15.00
2018-11-07T11:21:01.918Z,15.30
2018-11-07T11:23:31.827Z,16.00
2018-11-07T11:26:01.742Z,15.50
2018-11-07T11:28:33.606Z,15.30
2018-11-07T11:31:03.511Z,15.30
2018-11-07T11:33:33.377Z,15.40
2018-11-07T11:36:03.625Z,16.00
2018-11-07T11:38:33.524Z,15.80
2018-11-07T11:41:03.540Z,16.20
2018-11-07T11:43:36.050Z,17.00
2018-11-07T11:46:06.126Z,17.70
2018-11-07T11:48:36.058Z,18.10
2018-11-07T11:51:06.257Z,18.70
2018-11-07T11:53:36.151Z,19.10
2018-11-07T11:56:06.418Z,19.70
2018-11-07T11:58:37.131Z,20.10
2018-11-07T12:01:07.218Z,21.00
2018-11-07T12:03:37.141Z,21.00
2018-11-07T12:06:07.351Z,21.80
2018-11-07T12:08:37.225Z,22.00
2018-11-07T12:11:07.139Z,22.40
2018-11-07T12:13:38.069Z,22.70
2018-11-07T12:16:07.952Z,23.10
2018-11-07T12:18:37.882Z,23.50
2018-11-07T12:21:08.089Z,23.90
2018-11-07T12:23:37.950Z,24.30
2018-11-07T12:26:07.849Z,24.60
2018-11-07T12:28:38.045Z,25.00
2018-11-07T12:31:07.976Z,25.30
2018-11-07T12:33:37.897Z,25.40
2018-11-07T12:36:09.069Z,25.70
2018-11-07T12:38:38.956Z,25.80
2018-11-07T12:41:08.865Z,26.00
2018-11-07T12:43:39.725Z,26.10
2018-11-07T12:46:09.612Z,26.10
2018-11-07T12:48:39.602Z,26.00
2018-11-07T12:51:12.028Z,25.90
2018-11-07T12:53:41.891Z,26.00
2018-11-07T12:56:11.849Z,26.00
2018-11-07T12:58:43.218Z,26.20
2018-11-07T13:01:13.116Z,26.20
2018-11-07T13:03:43.335Z,26.50
2018-11-07T13:06:13.278Z,26.50
2018-11-07T13:08:43.191Z,26.80
2018-11-07T13:11:13.150Z,27.00
2018-11-07T13:13:44.369Z,27.20
2018-11-07T13:16:14.251Z,27.20
2018-11-07T13:18:44.165Z,27.50
2018-11-07T13:21:14.856Z,27.50
2018-11-07T13:23:44.769Z,27.50
2018-11-07T13:26:14.691Z,27.60
2018-11-07T13:28:45.028Z,27.70
2018-11-07T13:31:14.796Z,28.40
2018-11-07T13:33:44.667Z,27.80
2018-11-07T13:36:14.606Z,27.90
2018-11-07T13:38:44.855Z,28.00
2018-11-07T13:41:14.355Z,28.00
2018-11-07T13:43:44.571Z,28.10
2018-11-07T13:46:14.457Z,28.20
2018-11-07T13:48:44.359Z,28.30
2018-11-07T13:51:14.899Z,28.50
2018-11-07T13:53:45.020Z,28.50
2018-11-07T13:56:15.175Z,28.50
2018-11-07T13:58:45.120Z,28.10
2018-11-07T14:01:15.007Z,28.60
2018-11-07T14:03:44.933Z,28.60
2018-11-07T14:06:15.830Z,28.80
2018-11-07T14:08:45.711Z,29.00
2018-11-07T14:11:15.674Z,29.00
2018-11-07T14:13:46.362Z,29.10
2018-11-07T14:16:16.289Z,29.10
2018-11-07T14:18:46.137Z,29.40
2018-11-07T14:21:17.037Z,29.40
2018-11-07T14:23:46.962Z,29.40
2018-11-07T14:26:16.914Z,29.40
2018-11-07T14:28:46.794Z,29.40
2018-11-07T14:31:16.700Z,29.50
2018-11-07T14:33:46.688Z,29.60
2018-11-07T14:36:17.019Z,29.80
2018-11-07T14:38:46.942Z,29.80
2018-11-07T14:41:16.791Z,30.00
2018-11-07T14:43:46.728Z,30.00
2018-11-07T14:46:16.633Z,30.00
2018-11-07T14:48:46.499Z,30.20
2018-11-07T14:51:17.231Z,30.20
2018-11-07T14:53:47.227Z,30.40
2018-11-07T14:56:16.995Z,30.50
2018-11-07T14:58:47.239Z,30.50
2018-11-07T15:01:17.120Z,30.70
2018-11-07T15:03:47.000Z,30.80
2018-11-07T15:06:18.810Z,30.90
2018-11-07T15:08:48.731Z,31.00
2018-11-07T15:11:18.558Z,31.10
2018-11-07T15:13:49.283Z,31.20
2018-11-07T15:16:19.179Z,31.30
2018-11-07T15:18:49.065Z,31.70
2018-11-07T15:21:19.009Z,31.80
2018-11-07T15:23:48.875Z,32.00
2018-11-07T15:26:18.864Z,32.00
2018-11-07T15:28:48.855Z,31.90
2018-11-07T15:31:18.753Z,31.80
2018-11-07T15:33:48.640Z,32.00
2018-11-07T15:36:19.387Z,32.50
2018-11-07T15:38:49.234Z,32.70
2018-11-07T15:41:19.142Z,33.00
2018-11-07T15:43:49.094Z,32.90
2018-11-07T15:46:19.019Z,33.10
2018-11-07T15:48:48.896Z,33.30
2018-11-07T15:51:36.022Z,33.50
2018-11-07T15:54:06.767Z,33.60
2018-11-07T15:56:36.970Z,33.80
2018-11-07T15:59:07.229Z,34.10
2018-11-07T16:01:37.183Z,34.00
2018-11-07T16:04:07.300Z,34.30
2018-11-07T16:06:37.315Z,34.30
2018-11-07T16:09:09.409Z,34.70
2018-11-07T16:11:39.309Z,35.30
2018-11-07T16:14:10.191Z,35.20
2018-11-07T16:16:40.205Z,35.00
2018-11-07T16:19:10.159Z,35.10
2018-11-07T16:21:40.260Z,35.20
2018-11-07T16:24:10.250Z,35.30
2018-11-07T16:26:40.096Z,35.40
2018-11-07T16:29:11.122Z,35.40
2018-11-07T16:31:41.019Z,35.50
2018-11-07T16:34:11.047Z,35.50
2018-11-07T16:36:41.293Z,35.70
2018-11-07T16:39:12.170Z,35.60
2018-11-07T16:41:42.351Z,36.30
2018-11-07T16:44:12.414Z,35.90
2018-11-07T16:46:42.305Z,36.00
2018-11-07T16:49:12.184Z,36.20
2018-11-07T16:51:42.144Z,36.50
2018-11-07T16:54:16.778Z,36.80
2018-11-07T16:56:46.917Z,37.10
2018-11-07T16:59:16.987Z,37.20
2018-11-07T17:01:46.907Z,37.40
2018-11-07T17:04:16.891Z,37.60
2018-11-07T17:06:46.789Z,37.80
2018-11-07T17:09:16.691Z,37.90
2018-11-07T17:11:46.580Z,38.00
2018-11-07T17:14:16.486Z,38.30
2018-11-07T17:16:47.757Z,38.40
2018-11-07T17:19:17.686Z,38.50
2018-11-07T17:21:47.628Z,38.70
2018-11-07T17:24:18.441Z,38.70
2018-11-07T17:26:48.277Z,38.70
2018-11-07T17:29:18.168Z,38.70
2018-11-07T17:31:48.126Z,38.40
2018-11-07T17:34:18.047Z,38.30
2018-11-07T17:36:48.051Z,38.20
2018-11-07T17:39:19.531Z,38.00
2018-11-07T17:41:49.439Z,37.60
2018-11-07T17:44:19.440Z,37.80
2018-11-07T17:46:49.395Z,37.80
2018-11-07T17:49:19.305Z,38.10
2018-11-07T17:51:50.693Z,38.30
2018-11-07T17:54:21.076Z,38.60
2018-11-07T17:56:50.933Z,38.60
2018-11-07T17:59:20.808Z,38.60
2018-11-07T18:01:50.750Z,37.90
2018-11-07T18:04:20.670Z,38.50
2018-11-07T18:06:50.603Z,38.50
2018-11-07T18:09:22.019Z,38.50
2018-11-07T18:11:51.941Z,38.70
2018-11-07T18:14:21.818Z,38.60
2018-11-07T18:16:52.680Z,38.30
2018-11-07T18:19:22.610Z,38.30
2018-11-07T18:21:52.488Z,38.20
2018-11-07T18:24:23.410Z,38.30
2018-11-07T18:26:54.137Z,38.50
2018-11-07T18:29:23.890Z,38.60
2018-11-07T18:31:54.102Z,39.00
2018-11-07T18:34:23.996Z,38.40
2018-11-07T18:36:53.874Z,38.80
2018-11-07T18:39:24.602Z,38.50
2018-11-07T18:41:54.487Z,37.60
2018-11-07T18:44:24.472Z,37.70
2018-11-07T18:46:54.373Z,37.80
2018-11-07T18:49:24.263Z,37.80
2018-11-07T18:51:54.170Z,37.80
2018-11-07T18:54:24.122Z,37.90
2018-11-07T18:56:54.018Z,38.00
2018-11-07T18:59:23.919Z,38.20
2018-11-07T19:01:54.909Z,38.10
2018-11-07T19:04:24.884Z,38.10
2018-11-07T19:06:54.803Z,38.20
2018-11-07T19:09:24.751Z,39.00
2018-11-07T19:11:54.660Z,38.20
2018-11-07T19:14:24.590Z,38.30
2018-11-07T19:16:54.832Z,38.20
2018-11-07T19:19:24.738Z,38.10
2018-11-07T19:21:54.654Z,38.10
2018-11-07T19:24:24.642Z,38.10
2018-11-07T19:26:54.632Z,38.10
2018-11-07T19:29:24.489Z,37.80
2018-11-07T19:31:55.150Z,37.70
2018-11-07T19:34:25.049Z,37.00
2018-11-07T19:36:55.003Z,36.80
2018-11-07T19:39:24.936Z,37.00
2018-11-07T19:41:54.845Z,37.60
2018-11-07T19:44:24.886Z,37.50
2018-11-07T19:46:56.270Z,38.00
2018-11-07T19:49:26.277Z,38.00
2018-11-07T19:51:56.203Z,38.00
2018-11-07T19:54:27.393Z,38.00
2018-11-07T19:57:00.306Z,37.90
2018-11-07T19:59:30.189Z,38.40
2018-11-07T20:02:00.397Z,37.80
2018-11-07T20:04:30.375Z,37.90
2018-11-07T20:07:00.413Z,37.70
2018-11-07T20:09:30.694Z,38.30
2018-11-07T20:12:00.672Z,38.10
2018-11-07T20:14:30.570Z,38.40
2018-11-07T20:17:00.588Z,38.50
2018-11-07T20:19:30.437Z,38.10
2018-11-07T20:22:00.300Z,38.60
2018-11-07T20:24:31.046Z,38.00
2018-11-07T20:27:00.960Z,38.60
2018-11-07T20:29:30.861Z,38.70
2018-11-07T20:32:00.943Z,38.80
2018-11-07T20:34:30.819Z,38.40
2018-11-07T20:37:00.738Z,38.60
2018-11-07T20:39:30.991Z,39.10
2018-11-07T20:44:31.222Z,39.60
2018-11-07T20:47:02.104Z,39.60
2018-11-07T20:49:32.732Z,39.60
2018-11-07T20:52:02.843Z,39.80
2018-11-07T20:54:34.625Z,39.80
2018-11-07T20:57:04.657Z,39.50
2018-11-07T20:59:34.791Z,40.00
2018-11-07T21:02:04.927Z,40.10
2018-11-07T21:04:34.863Z,39.60
2018-11-07T21:07:04.896Z,39.90
2018-11-07T21:09:37.291Z,39.90
2018-11-07T21:12:07.530Z,40.10
2018-11-07T21:14:37.403Z,40.40
2018-11-07T21:17:07.565Z,40.80
2018-11-07T21:19:37.451Z,41.20
2018-11-07T21:22:14.413Z,41.30
2018-11-07T21:24:44.345Z,41.60
2018-11-07T21:27:14.431Z,41.70
2018-11-07T21:29:44.319Z,41.50
2018-11-07T21:32:14.335Z,41.50
2018-11-07T21:34:45.341Z,41.60
2018-11-07T21:37:15.288Z,41.60
2018-11-07T21:39:45.468Z,41.60
2018-11-07T21:42:15.886Z,41.80
2018-11-07T21:44:45.799Z,41.70
2018-11-07T21:47:15.709Z,41.60
2018-11-07T21:49:46.838Z,41.50
2018-11-07T21:52:16.962Z,41.40
2018-11-07T21:54:47.040Z,41.30
2018-11-07T21:57:18.157Z,41.40
2018-11-07T21:59:48.053Z,41.00
2018-11-07T22:02:18.134Z,41.70
2018-11-07T22:04:48.301Z,41.50
2018-11-07T22:07:18.507Z,42.00
2018-11-07T22:09:50.851Z,42.50
2018-11-07T22:12:20.602Z,42.40
2018-11-07T22:14:50.651Z,42.50
2018-11-07T22:17:20.816Z,42.50
2018-11-07T22:19:51.031Z,42.40
2018-11-07T22:22:21.124Z,41.90
2018-11-07T22:24:51.016Z,42.40
2018-11-07T22:27:21.150Z,42.10
2018-11-07T22:29:51.263Z,41.80
2018-11-07T22:32:22.117Z,41.80
2018-11-07T22:34:51.984Z,41.40
2018-11-07T22:37:21.925Z,41.20
2018-11-07T22:39:54.325Z,41.10
2018-11-07T22:42:24.496Z,41.20
2018-11-07T22:44:54.427Z,41.30
2018-11-07T22:47:24.673Z,40.70
2018-11-07T22:49:54.583Z,41.10
2018-11-07T22:52:24.648Z,40.70
2018-11-07T22:54:55.642Z,40.60
2018-11-07T22:57:25.519Z,40.60
2018-11-07T22:59:55.677Z,41.50
2018-11-07T23:02:26.593Z,41.00
2018-11-07T23:04:56.648Z,41.10
2018-11-07T23:07:26.780Z,40.40
2018-11-07T23:09:58.470Z,41.00
2018-11-07T23:12:28.397Z,41.10
2018-11-07T23:14:58.540Z,41.00
2018-11-07T23:17:28.786Z,40.40
2018-11-07T23:19:58.809Z,41.00
2018-11-07T23:22:28.829Z,40.90
2018-11-07T23:24:58.904Z,41.30
2018-11-07T23:27:28.929Z,41.20
2018-11-07T23:29:58.985Z,40.50
2018-11-07T23:32:29.344Z,40.80
2018-11-07T23:34:59.425Z,41.00
2018-11-07T23:37:29.445Z,41.50
2018-11-07T23:40:00.144Z,41.10
2018-11-07T23:42:30.124Z,41.20
2018-11-07T23:45:00.167Z,41.70
2018-11-07T23:47:30.279Z,42.40
2018-11-07T23:50:00.438Z,42.10
2018-11-07T23:52:49.573Z,42.70
2018-11-07T23:55:23.747Z,42.80
2018-11-07T23:57:54.398Z,42.00
